createdAt,value
2018-11-27T00:00:37.115Z,3.10
2018-11-27T00:03:08.260Z,3.10
2018-11-27T00:05:37.914Z,3.10
2018-11-27T00:08:07.218Z,3.10
2018-11-27T00:10:37.857Z,3.10
2018-11-27T00:13:06.331Z,3.10
2018-11-27T00:15:34.541Z,3.10
2018-11-27T00:18:02.793Z,3.10
2018-11-27T00:20:30.997Z,3.10
2018-11-27T00:22:59.321Z,3.10
2018-11-27T00:25:27.817Z,3.10
2018-11-27T00:27:56.277Z,3.10
2018-11-27T00:30:24.516Z,3.00
2018-11-27T00:32:53.078Z,3.00
2018-11-27T00:35:21.416Z,3.00
2018-11-27T00:37:49.933Z,2.90
2018-11-27T00:40:21.806Z,2.90
2018-11-27T00:42:50.168Z,2.90
2018-11-27T00:45:19.748Z,2.90
2018-11-27T00:47:49.435Z,2.90
2018-11-27T00:50:22.990Z,2.90
2018-11-27T00:52:51.362Z,2.80
2018-11-27T00:55:20.512Z,2.80
2018-11-27T00:57:50.866Z,2.80
2018-11-27T01:00:21.778Z,2.80
2018-11-27T01:02:50.232Z,2.80
2018-11-27T01:05:20.611Z,2.80
2018-11-27T01:07:49.028Z,2.80
2018-11-27T01:10:22.704Z,2.80
2018-11-27T01:12:51.462Z,2.80
2018-11-27T01:15:19.965Z,2.80
2018-11-27T01:17:53.074Z,2.80
2018-11-27T01:20:22.128Z,2.80
2018-11-27T01:22:50.428Z,2.80
2018-11-27T01:25:18.939Z,2.80
2018-11-27T01:27:47.424Z,2.80
2018-11-27T01:30:19.968Z,2.80
2018-11-27T01:32:48.500Z,2.80
2018-11-27T01:35:20.470Z,2.80
2018-11-27T01:37:50.166Z,2.80
2018-11-27T01:40:22.746Z,2.70
2018-11-27T01:42:52.370Z,2.80
2018-11-27T01:45:21.276Z,2.80
2018-11-27T01:47:49.650Z,2.80
2018-11-27T01:50:18.721Z,2.80
2018-11-27T01:52:47.022Z,2.80
2018-11-27T01:55:16.573Z,2.80
2018-11-27T01:57:44.781Z,2.90
2018-11-27T02:00:21.038Z,2.90
2018-11-27T02:02:49.643Z,2.90
2018-11-27T02:05:17.860Z,3.00
2018-11-27T02:07:46.060Z,2.90
2018-11-27T02:10:14.455Z,2.90
2018-11-27T02:12:44.553Z,2.90
2018-11-27T02:15:17.565Z,2.90
2018-11-27T02:17:45.784Z,2.90
2018-11-27T02:20:14.009Z,2.90
2018-11-27T02:22:42.156Z,3.00
2018-11-27T02:25:15.184Z,3.00
2018-11-27T02:27:43.360Z,2.90
2018-11-27T02:30:14.507Z,2.90
2018-11-27T02:32:42.828Z,2.90
2018-11-27T02:35:19.350Z,3.00
2018-11-27T02:37:49.862Z,2.90
2018-11-27T02:40:18.494Z,2.90
2018-11-27T02:42:46.710Z,2.90
2018-11-27T02:45:16.836Z,2.90
2018-11-27T02:47:45.774Z,2.90
2018-11-27T02:50:15.636Z,3.00
2018-11-27T02:52:44.040Z,2.90
2018-11-27T02:55:14.517Z,2.90
2018-11-27T02:57:42.886Z,2.90
2018-11-27T03:00:13.488Z,2.90
2018-11-27T03:02:41.856Z,2.90
2018-11-27T03:05:15.972Z,2.90
2018-11-27T03:07:44.220Z,2.90
2018-11-27T03:10:14.300Z,2.90
2018-11-27T03:12:42.739Z,2.90
2018-11-27T03:15:14.526Z,2.80
2018-11-27T03:17:43.617Z,2.70
2018-11-27T03:20:13.473Z,2.70
2018-11-27T03:22:41.728Z,2.60
2018-11-27T03:25:16.493Z,2.50
2018-11-27T03:27:46.518Z,2.40
2018-11-27T03:30:19.356Z,2.30
2018-11-27T03:32:47.921Z,2.30
2018-11-27T03:35:18.199Z,2.20
2018-11-27T03:37:47.461Z,2.10
2018-11-27T03:40:18.859Z,2.10
2018-11-27T03:42:47.554Z,2.00
2018-11-27T03:45:16.233Z,2.00
2018-11-27T03:47:44.708Z,1.90
2018-11-27T03:50:21.205Z,1.90
2018-11-27T03:52:49.592Z,1.90
2018-11-27T03:55:17.827Z,1.80
2018-11-27T03:57:46.248Z,1.80
2018-11-27T04:00:18.032Z,1.80
2018-11-27T04:02:50.079Z,1.80
2018-11-27T04:05:18.326Z,1.80
2018-11-27T04:07:46.504Z,1.80
2018-11-27T04:10:16.600Z,1.90
2018-11-27T04:12:45.047Z,1.90
2018-11-27T04:15:13.642Z,2.00
2018-11-27T04:17:42.176Z,2.10
2018-11-27T04:20:12.402Z,2.20
2018-11-27T04:22:41.711Z,2.20
2018-11-27T04:25:13.556Z,2.20
2018-11-27T04:27:42.177Z,2.30
2018-11-27T04:30:13.272Z,2.30
2018-11-27T04:32:41.663Z,2.30
2018-11-27T04:35:18.806Z,2.20
2018-11-27T04:37:47.449Z,2.10
2018-11-27T04:40:17.026Z,2.10
2018-11-27T04:42:45.549Z,2.00
2018-11-27T04:45:24.163Z,2.00
2018-11-27T04:47:52.603Z,1.80
2018-11-27T04:50:21.213Z,1.70
2018-11-27T04:52:49.695Z,1.60
2018-11-27T04:55:19.908Z,1.50
2018-11-27T04:57:48.956Z,1.50
2018-11-27T05:00:28.055Z,1.40
2018-11-27T05:02:56.437Z,1.40
2018-11-27T05:05:24.679Z,1.30
2018-11-27T05:07:52.957Z,1.40
2018-11-27T05:10:23.014Z,1.30
2018-11-27T05:12:52.217Z,1.40
2018-11-27T05:15:26.077Z,1.30
2018-11-27T05:17:57.485Z,1.30
2018-11-27T05:20:25.793Z,1.30
2018-11-27T05:22:54.301Z,1.20
2018-11-27T05:25:22.721Z,1.30
2018-11-27T05:27:55.973Z,1.20
2018-11-27T05:30:30.046Z,1.20
2018-11-27T05:32:58.573Z,1.30
2018-11-27T05:35:28.867Z,1.30
2018-11-27T05:37:58.781Z,1.30
2018-11-27T05:40:26.983Z,1.30
2018-11-27T05:43:07.539Z,1.20
2018-11-27T05:45:35.915Z,1.20
2018-11-27T05:48:05.590Z,1.10
2018-11-27T05:50:33.933Z,1.00
2018-11-27T05:53:02.487Z,1.00
2018-11-27T05:55:30.691Z,0.90
2018-11-27T05:57:59.052Z,0.90
2018-11-27T06:00:28.868Z,0.90
2018-11-27T06:02:58.669Z,0.80
2018-11-27T06:05:27.063Z,0.80
2018-11-27T06:07:55.339Z,0.80
2018-11-27T06:10:24.139Z,0.70
2018-11-27T06:12:52.309Z,0.70
2018-11-27T06:15:21.963Z,0.70
2018-11-27T06:17:53.719Z,0.60
2018-11-27T06:20:22.780Z,0.60
2018-11-27T06:22:51.885Z,0.60
2018-11-27T06:25:24.650Z,0.70
2018-11-27T06:27:58.645Z,0.70
2018-11-27T06:30:28.066Z,0.80
2018-11-27T06:32:56.377Z,0.70
2018-11-27T06:35:28.544Z,0.70
2018-11-27T06:37:56.786Z,0.70
2018-11-27T06:40:30.176Z,0.50
2018-11-27T06:43:00.261Z,0.50
2018-11-27T06:45:28.448Z,0.50
2018-11-27T06:47:57.070Z,0.40
2018-11-27T06:50:25.548Z,0.40
2018-11-27T06:52:53.730Z,0.40
2018-11-27T06:55:23.379Z,0.50
2018-11-27T06:57:51.788Z,0.50
2018-11-27T07:00:23.992Z,0.50
2018-11-27T07:02:52.238Z,0.60
2018-11-27T07:05:20.532Z,0.70
2018-11-27T07:07:48.767Z,0.80
2018-11-27T07:10:21.676Z,0.90
2018-11-27T07:12:51.756Z,1.00
2018-11-27T07:15:21.875Z,1.00
2018-11-27T07:17:50.174Z,1.00
2018-11-27T07:20:18.466Z,1.00
2018-11-27T07:22:46.671Z,1.00
2018-11-27T07:25:15.904Z,1.10
2018-11-27T07:27:47.041Z,1.20
2018-11-27T07:30:17.757Z,1.20
2018-11-27T07:32:46.024Z,1.30
2018-11-27T07:35:15.733Z,1.30
2018-11-27T07:37:44.819Z,1.30
2018-11-27T07:40:20.718Z,1.40
2018-11-27T07:42:50.589Z,1.40
2018-11-27T07:45:21.540Z,1.50
2018-11-27T07:47:49.802Z,1.50
2018-11-27T07:50:18.265Z,1.50
2018-11-27T07:52:46.551Z,1.40
2018-11-27T07:55:16.410Z,1.50
2018-11-27T07:57:44.713Z,1.40
2018-11-27T08:00:14.737Z,1.40
2018-11-27T08:02:45.326Z,1.40
2018-11-27T08:05:17.963Z,1.40
2018-11-27T08:07:51.149Z,1.50
2018-11-27T08:10:21.175Z,1.50
2018-11-27T08:12:49.450Z,1.50
2018-11-27T08:15:21.591Z,1.50
2018-11-27T08:17:49.905Z,1.60
2018-11-27T08:20:20.993Z,1.50
2018-11-27T08:22:49.214Z,1.50
2018-11-27T08:25:17.397Z,1.60
2018-11-27T08:27:45.632Z,1.60
2018-11-27T08:30:18.227Z,1.70
2018-11-27T08:32:46.580Z,1.80
2018-11-27T08:35:22.252Z,1.80
2018-11-27T08:37:51.825Z,1.70
2018-11-27T08:40:22.467Z,1.60
2018-11-27T08:42:50.721Z,1.60
2018-11-27T08:45:21.940Z,1.70
2018-11-27T08:47:51.308Z,1.60
2018-11-27T08:50:22.797Z,1.70
2018-11-27T08:52:58.786Z,1.80
2018-11-27T08:55:30.614Z,1.80
2018-11-27T08:57:59.771Z,1.80
2018-11-27T09:00:27.952Z,1.80
2018-11-27T09:02:56.205Z,1.70
2018-11-27T09:05:24.403Z,1.70
2018-11-27T09:07:52.590Z,1.70
2018-11-27T09:10:22.803Z,1.70
2018-11-27T09:12:51.067Z,1.60
2018-11-27T09:15:20.982Z,1.50
2018-11-27T09:17:57.382Z,1.60
2018-11-27T09:20:25.706Z,1.50
2018-11-27T09:22:53.932Z,1.60
2018-11-27T09:25:22.250Z,1.60
2018-11-27T09:27:50.489Z,1.70
2018-11-27T09:30:24.780Z,1.80
2018-11-27T09:32:53.932Z,1.80
2018-11-27T09:35:22.130Z,1.80
2018-11-27T09:37:50.346Z,1.80
2018-11-27T09:40:19.526Z,1.90
2018-11-27T09:42:47.717Z,1.90
2018-11-27T09:45:22.833Z,2.10
2018-11-27T09:47:58.363Z,2.20
2018-11-27T09:50:26.539Z,2.30
2018-11-27T09:52:54.755Z,2.40
2018-11-27T09:55:26.215Z,2.40
2018-11-27T09:57:59.053Z,2.50
2018-11-27T10:00:27.087Z,2.40
2018-11-27T10:02:58.004Z,2.50
2018-11-27T10:05:26.241Z,2.50
2018-11-27T10:07:54.391Z,2.50
2018-11-27T10:10:23.756Z,2.40
2018-11-27T10:12:52.782Z,2.20
2018-11-27T10:15:24.584Z,2.30
2018-11-27T10:18:01.955Z,2.30
2018-11-27T10:20:37.138Z,2.30
2018-11-27T10:23:08.401Z,2.40
2018-11-27T10:25:36.609Z,2.40
2018-11-27T10:28:05.224Z,2.40
2018-11-27T10:30:33.456Z,2.40
2018-11-27T10:33:01.642Z,2.40
2018-11-27T10:35:34.194Z,2.40
2018-11-27T10:38:02.451Z,2.30
2018-11-27T10:40:30.683Z,2.40
2018-11-27T10:42:58.974Z,2.50
2018-11-27T10:45:27.248Z,2.70
2018-11-27T10:47:56.222Z,2.70
2018-11-27T10:50:24.690Z,2.80
2018-11-27T10:52:55.094Z,3.00
2018-11-27T10:55:24.563Z,3.30
2018-11-27T10:57:52.839Z,3.70
2018-11-27T11:00:28.385Z,3.90
2018-11-27T11:04:04.020Z,4.20
2018-11-27T11:06:33.449Z,4.50
2018-11-27T11:09:02.005Z,4.60
2018-11-27T11:11:30.209Z,4.60
2018-11-27T11:13:58.613Z,4.20
2018-11-27T11:16:26.866Z,4.30
2018-11-27T11:18:55.054Z,4.40
2018-11-27T11:21:23.251Z,4.70
2018-11-27T11:23:51.425Z,5.00
2018-11-27T11:26:19.647Z,4.80
2018-11-27T11:28:47.799Z,5.00
2018-11-27T11:31:16.027Z,5.00
2018-11-27T11:33:44.255Z,4.70
2018-11-27T11:36:12.549Z,4.70
2018-11-27T11:38:40.779Z,4.70
2018-11-27T11:41:09.116Z,4.60
2018-11-27T11:43:37.297Z,4.30
2018-11-27T11:46:06.257Z,3.80
2018-11-27T11:48:34.457Z,3.70
2018-11-27T11:51:02.823Z,3.60
2018-11-27T11:53:30.984Z,3.40
2018-11-27T11:55:59.242Z,3.40
2018-11-27T11:58:27.553Z,3.40
2018-11-27T12:00:56.621Z,3.20
2018-11-27T12:03:24.855Z,3.10
2018-11-27T12:05:53.034Z,3.00
2018-11-27T12:08:21.248Z,2.90
2018-11-27T12:10:49.419Z,3.00
2018-11-27T12:13:17.716Z,3.10
2018-11-27T12:15:45.887Z,3.20
2018-11-27T12:18:14.138Z,3.30
2018-11-27T12:20:42.331Z,3.40
2018-11-27T12:23:11.604Z,3.40
2018-11-27T12:25:40.382Z,3.30
2018-11-27T12:28:14.373Z,3.30
2018-11-27T12:30:38.019Z,3.40
2018-11-27T12:33:06.998Z,3.40
2018-11-27T12:35:35.354Z,3.40
2018-11-27T12:38:04.125Z,3.30
2018-11-27T12:40:32.374Z,3.30
2018-11-27T12:43:00.532Z,3.10
2018-11-27T12:45:31.285Z,3.00
2018-11-27T12:48:01.501Z,2.90
2018-11-27T12:50:37.204Z,2.80
2018-11-27T12:53:07.240Z,2.80
2018-11-27T12:55:37.534Z,2.80
2018-11-27T12:58:06.874Z,2.70
2018-11-27T13:00:35.334Z,2.60
2018-11-27T13:03:03.735Z,2.50
2018-11-27T13:05:38.848Z,2.60
2018-11-27T13:08:13.642Z,2.70
2018-11-27T13:10:41.896Z,2.70
2018-11-27T13:13:10.111Z,2.60
2018-11-27T13:15:39.631Z,2.50
2018-11-27T13:18:09.385Z,2.40
2018-11-27T13:20:38.221Z,2.30
2018-11-27T13:23:07.169Z,2.40
2018-11-27T13:25:36.235Z,2.40
2018-11-27T13:28:05.158Z,2.50
2018-11-27T13:30:56.677Z,2.60
2018-11-27T13:33:34.955Z,2.50
2018-11-27T13:36:03.439Z,2.40
2018-11-27T13:38:31.671Z,2.30
2018-11-27T13:40:59.930Z,2.30
2018-11-27T13:43:29.287Z,2.20
2018-11-27T13:45:59.235Z,2.20
2018-11-27T13:48:28.059Z,2.30
2018-11-27T13:50:56.314Z,2.40
2018-11-27T13:53:24.663Z,2.30
2018-11-27T13:55:53.876Z,2.30
2018-11-27T13:58:22.033Z,2.20
2018-11-27T14:00:50.282Z,2.00
2018-11-27T14:03:18.574Z,2.00
2018-11-27T14:05:46.852Z,1.90
2018-11-27T14:08:15.200Z,1.70
2018-11-27T14:10:43.455Z,1.70
2018-11-27T14:13:11.723Z,1.70
2018-11-27T14:15:40.077Z,1.70
2018-11-27T14:18:08.668Z,1.80
2018-11-27T14:20:36.944Z,1.80
2018-11-27T14:23:05.929Z,1.70
2018-11-27T14:25:34.209Z,1.60
2018-11-27T14:28:02.597Z,1.50
2018-11-27T14:30:31.139Z,1.40
2018-11-27T14:32:59.928Z,1.40
2018-11-27T14:35:28.184Z,1.40
2018-11-27T14:37:56.449Z,1.40
2018-11-27T14:40:27.597Z,1.30
2018-11-27T14:42:56.129Z,1.30
2018-11-27T14:45:26.017Z,1.20
2018-11-27T14:47:56.884Z,1.00
2018-11-27T14:50:25.334Z,0.90
2018-11-27T14:52:53.578Z,0.80
2018-11-27T14:55:27.386Z,0.80
2018-11-27T14:57:55.692Z,0.80
2018-11-27T15:00:24.820Z,0.70
2018-11-27T15:02:53.221Z,0.70
2018-11-27T15:05:30.888Z,0.60
2018-11-27T15:07:59.209Z,0.50
2018-11-27T15:10:27.564Z,0.50
2018-11-27T15:12:55.890Z,0.50
2018-11-27T15:15:24.301Z,0.40
2018-11-27T15:17:52.646Z,0.40
2018-11-27T15:20:22.099Z,0.40
2018-11-27T15:22:50.422Z,0.40
2018-11-27T15:25:18.784Z,0.40
2018-11-27T15:27:47.431Z,0.40
2018-11-27T15:30:21.380Z,0.30
2018-11-27T15:32:50.763Z,0.30
2018-11-27T15:35:19.138Z,0.30
2018-11-27T15:37:47.405Z,0.20
2018-11-27T15:40:22.326Z,0.20
2018-11-27T15:42:51.575Z,0.20
2018-11-27T15:45:27.679Z,0.20
2018-11-27T15:47:55.919Z,0.10
2018-11-27T15:50:24.138Z,0.10
2018-11-27T15:52:52.385Z,0.10
2018-11-27T15:55:28.493Z,0.10
2018-11-27T15:58:07.968Z,0.00
2018-11-27T16:00:36.278Z,0.00
2018-11-27T16:03:04.896Z,0.00
2018-11-27T16:05:33.470Z,0.00
2018-11-27T16:10:50.592Z,0.00
2018-11-27T16:13:18.802Z,-0.10
2018-11-27T16:15:47.142Z,-0.10
2018-11-27T16:18:15.344Z,-0.10
2018-11-27T16:20:43.806Z,-0.10
2018-11-27T16:23:12.714Z,-0.10
2018-11-27T16:25:41.292Z,-0.10
2018-11-27T16:28:09.611Z,-0.20
2018-11-27T16:30:37.921Z,-0.20
2018-11-27T16:33:06.945Z,-0.20
2018-11-27T16:35:35.624Z,-0.30
2018-11-27T16:38:04.149Z,-0.30
2018-11-27T16:40:35.488Z,-0.40
2018-11-27T16:43:03.913Z,-0.40
2018-11-27T16:45:33.181Z,-0.40
2018-11-27T16:48:01.499Z,-0.30
2018-11-27T16:50:30.355Z,-0.40
2018-11-27T16:52:59.173Z,-0.40
2018-11-27T16:55:27.371Z,-0.40
2018-11-27T16:57:55.611Z,-0.50
2018-11-27T17:00:27.703Z,-0.50
2018-11-27T17:02:57.440Z,-0.50
2018-11-27T17:05:27.526Z,-0.40
2018-11-27T17:07:55.765Z,-0.50
2018-11-27T17:10:24.013Z,-0.50
2018-11-27T17:12:54.399Z,-0.60
2018-11-27T17:15:24.619Z,-0.60
2018-11-27T17:17:52.820Z,-0.60
2018-11-27T17:20:24.863Z,-0.70
2018-11-27T17:22:53.856Z,-0.70
2018-11-27T17:25:22.335Z,-0.70
2018-11-27T17:27:51.392Z,-0.70
2018-11-27T17:30:27.151Z,-0.70
2018-11-27T17:32:56.354Z,-0.70
2018-11-27T17:35:25.753Z,-0.70
2018-11-27T17:37:54.058Z,-0.70
2018-11-27T17:40:22.330Z,-0.60
2018-11-27T17:42:50.573Z,-0.60
2018-11-27T17:45:18.854Z,-0.60
2018-11-27T17:47:47.130Z,-0.70
2018-11-27T17:50:16.810Z,-0.70
2018-11-27T17:52:45.046Z,-0.70
2018-11-27T17:55:13.783Z,-0.70
2018-11-27T17:57:42.139Z,-0.70
2018-11-27T18:00:21.075Z,-0.70
2018-11-27T18:02:51.507Z,-0.70
2018-11-27T18:05:19.938Z,-0.70
2018-11-27T18:07:48.220Z,-0.70
2018-11-27T18:10:16.523Z,-0.70
2018-11-27T18:12:44.797Z,-0.70
2018-11-27T18:15:15.883Z,-0.70
2018-11-27T18:17:44.288Z,-0.70
2018-11-27T18:20:13.046Z,-0.70
2018-11-27T18:22:44.396Z,-0.70
2018-11-27T18:25:17.551Z,-0.70
2018-11-27T18:27:47.281Z,-0.70
2018-11-27T18:30:17.994Z,-0.70
2018-11-27T18:32:46.455Z,-0.70
2018-11-27T18:35:17.174Z,-0.80
2018-11-27T18:37:45.667Z,-0.80
2018-11-27T18:40:14.870Z,-0.70
2018-11-27T18:42:43.876Z,-0.80
2018-11-27T18:45:16.798Z,-0.80
2018-11-27T18:47:45.175Z,-0.80
2018-11-27T18:50:13.651Z,-0.80
2018-11-27T18:52:42.511Z,-0.80
2018-11-27T18:55:14.202Z,-0.80
2018-11-27T18:57:43.499Z,-0.80
2018-11-27T19:00:20.217Z,-0.80
2018-11-27T19:02:49.415Z,-0.80
2018-11-27T19:05:17.678Z,-0.80
2018-11-27T19:07:45.982Z,-0.90
2018-11-27T19:10:20.127Z,-0.90
2018-11-27T19:12:48.844Z,-1.00
2018-11-27T19:15:26.953Z,-1.00
2018-11-27T19:18:35.042Z,-1.10
2018-11-27T19:21:03.365Z,-1.10
2018-11-27T19:23:31.687Z,-1.10
2018-11-27T19:26:00.577Z,-1.10
2018-11-27T19:28:28.849Z,-1.10
2018-11-27T19:30:57.150Z,-1.10
2018-11-27T19:33:25.420Z,-1.20
2018-11-27T19:35:53.792Z,-1.20
2018-11-27T19:38:22.706Z,-1.20
2018-11-27T19:40:50.981Z,-1.30
2018-11-27T19:43:19.206Z,-1.30
2018-11-27T19:45:47.945Z,-1.30
2018-11-27T19:48:17.428Z,-1.40
2018-11-27T19:50:45.659Z,-1.40
2018-11-27T19:53:15.698Z,-1.40
2018-11-27T19:55:44.081Z,-1.40
2018-11-27T19:58:12.267Z,-1.50
2018-11-27T20:00:40.558Z,-1.50
2018-11-27T20:03:10.666Z,-1.50
2018-11-27T20:05:39.602Z,-1.50
2018-11-27T20:08:13.047Z,-1.60
2018-11-27T20:10:41.344Z,-1.60
2018-11-27T20:16:10.170Z,-1.50
2018-11-27T20:18:38.401Z,-1.60
2018-11-27T20:21:06.887Z,-1.60
2018-11-27T20:23:35.153Z,-1.70
2018-11-27T20:26:03.424Z,-1.70
2018-11-27T20:28:31.621Z,-1.70
2018-11-27T20:30:59.877Z,-1.60
2018-11-27T20:33:28.086Z,-1.70
2018-11-27T20:36:03.232Z,-1.60
2018-11-27T20:38:31.476Z,-1.70
2018-11-27T20:40:59.724Z,-1.70
2018-11-27T20:43:27.931Z,-1.70
2018-11-27T20:45:56.468Z,-1.80
2018-11-27T20:48:24.732Z,-1.80
2018-11-27T20:50:53.058Z,-1.80
2018-11-27T20:53:21.363Z,-1.90
2018-11-27T20:55:49.719Z,-1.90
2018-11-27T20:58:18.011Z,-1.90
2018-11-27T21:00:48.405Z,-1.90
2018-11-27T21:03:16.748Z,-1.90
2018-11-27T21:05:45.082Z,-1.90
2018-11-27T21:08:15.176Z,-1.90
2018-11-27T21:10:43.418Z,-1.90
2018-11-27T21:13:12.237Z,-1.90
2018-11-27T21:15:42.093Z,-2.00
2018-11-27T21:18:11.461Z,-2.00
2018-11-27T21:20:40.563Z,-2.00
2018-11-27T21:23:08.860Z,-2.00
2018-11-27T21:25:37.076Z,-2.00
2018-11-27T21:28:11.643Z,-1.90
2018-11-27T21:30:39.959Z,-1.90
2018-11-27T21:33:08.242Z,-2.00
2018-11-27T21:35:36.525Z,-2.00
2018-11-27T21:38:05.195Z,-2.10
2018-11-27T21:40:34.013Z,-2.10
2018-11-27T21:43:02.261Z,-2.10
2018-11-27T21:45:30.521Z,-2.10
2018-11-27T21:47:59.086Z,-2.10
2018-11-27T21:50:32.921Z,-2.10
2018-11-27T21:53:01.577Z,-2.10
2018-11-27T21:55:29.889Z,-2.00
2018-11-27T21:57:58.251Z,-2.10
2018-11-27T22:00:26.942Z,-2.20
2018-11-27T22:02:55.477Z,-2.20
2018-11-27T22:05:23.787Z,-2.20
2018-11-27T22:07:52.081Z,-2.20
2018-11-27T22:10:21.952Z,-2.30
2018-11-27T22:12:56.218Z,-2.30
2018-11-27T22:15:31.753Z,-2.40
2018-11-27T22:18:00.134Z,-2.40
2018-11-27T22:20:28.258Z,-2.40
2018-11-27T22:22:56.595Z,-2.50
2018-11-27T22:25:24.876Z,-2.50
2018-11-27T22:27:53.105Z,-2.50
2018-11-27T22:30:21.437Z,-2.60
2018-11-27T22:32:53.872Z,-2.60
2018-11-27T22:35:22.127Z,-2.60
2018-11-27T22:37:50.322Z,-2.60
2018-11-27T22:40:20.260Z,-2.70
2018-11-27T22:42:49.443Z,-2.70
2018-11-27T22:45:23.782Z,-2.70
2018-11-27T22:47:51.969Z,-2.70
2018-11-27T22:50:20.825Z,-2.70
2018-11-27T22:52:49.094Z,-2.70
2018-11-27T22:55:17.284Z,-2.80
2018-11-27T22:57:45.458Z,-2.70
2018-11-27T23:00:30.237Z,-2.70
2018-11-27T23:02:58.558Z,-2.80
2018-11-27T23:05:26.812Z,-2.80
2018-11-27T23:07:55.012Z,-2.80
2018-11-27T23:10:23.645Z,-2.80
2018-11-27T23:12:51.886Z,-2.80
2018-11-27T23:15:21.209Z,-2.80
2018-11-27T23:17:49.594Z,-2.70
2018-11-27T23:20:18.495Z,-2.70
2018-11-27T23:22:46.764Z,-2.70
2018-11-27T23:25:16.432Z,-2.70
2018-11-27T23:27:44.654Z,-2.70
2018-11-27T23:30:20.438Z,-2.70
2018-11-27T23:32:48.767Z,-2.70
2018-11-27T23:35:17.340Z,-2.70
2018-11-27T23:37:45.602Z,-2.70
2018-11-27T23:40:16.086Z,-2.80
2018-11-27T23:42:44.764Z,-2.80
2018-11-27T23:45:15.198Z,-2.90
2018-11-27T23:47:43.594Z,-2.90
2018-11-27T23:50:14.282Z,-2.90
2018-11-27T23:52:42.743Z,-2.90
2018-11-27T23:55:12.335Z,-3.00
2018-11-27T23:57:40.944Z,-3.00
